TimeCDT,TemperatureF,Dew PointF,Humidity,Sea Level PressureIn,VisibilityMPH,Wind Direction,Wind SpeedMPH,Gust SpeedMPH,PrecipitationIn,Events,Conditions,WindDirDegrees,DateUTC
12:53 AM,45.0,35.1,68,29.73,10.0,SSE,9.2,-,N/A,,Clear,150,2012-10-13 05:53:00
1:53 AM,44.1,35.1,71,29.70,10.0,SSE,9.2,-,N/A,,Clear,150,2012-10-13 06:53:00
2:53 AM,41.0,34.0,76,29.67,10.0,SE,4.6,-,N/A,,Clear,140,2012-10-13 07:53:00
3:53 AM,39.9,34.0,79,29.66,10.0,SE,4.6,-,N/A,,Clear,130,2012-10-13 08:53:00
4:53 AM,39.9,35.1,83,29.65,10.0,Calm,Calm,-,N/A,,Clear,0,2012-10-13 09:53:00
5:53 AM,42.1,35.1,76,29.66,10.0,NE,3.5,-,N/A,,Clear,50,2012-10-13 10:53:00
6:53 AM,42.1,35.1,76,29.65,10.0,SE,5.8,-,N/A,,Clear,130,2012-10-13 11:53:00
7:53 AM,41.0,35.1,79,29.68,10.0,Calm,Calm,-,N/A,,Clear,0,2012-10-13 12:53:00
8:53 AM,42.1,36.0,79,29.68,10.0,Calm,Calm,-,N/A,,Clear,0,2012-10-13 13:53:00
9:53 AM,46.0,37.0,71,29.70,10.0,NW,5.8,-,N/A,,Clear,310,2012-10-13 14:53:00
10:53 AM,50.0,39.0,66,29.70,10.0,NW,8.1,-,N/A,,Clear,310,2012-10-13 15:53:00
11:53 AM,53.1,39.9,61,29.70,10.0,WNW,8.1,-,N/A,,Clear,300,2012-10-13 16:53:00
12:53 PM,61.0,39.9,46,29.70,10.0,West,6.9,-,N/A,,Clear,280,2012-10-13 17:53:00
1:53 PM,68.0,39.9,36,29.68,10.0,WNW,9.2,-,N/A,,Clear,290,2012-10-13 18:53:00
2:53 PM,72.0,37.0,28,29.67,10.0,NW,11.5,21.9,N/A,,Clear,320,2012-10-13 19:53:00
3:53 PM,73.9,30.0,20,29.68,10.0,North,17.3,-,N/A,,Unknown,350,2012-10-13 20:53:00
4:53 PM,73.9,32.0,21,29.70,10.0,NNW,18.4,25.3,N/A,,Clear,340,2012-10-13 21:53:00
5:53 PM,72.0,30.0,21,29.72,10.0,North,12.7,-,N/A,,Clear,10,2012-10-13 22:53:00
7:53 PM,62.1,30.9,31,29.78,10.0,North,9.2,-,N/A,,Clear,350,2012-10-14 00:53:00
9:53 PM,54.0,32.0,43,29.84,10.0,North,11.5,-,N/A,,Clear,360,2012-10-14 02:53:00